Time;durP1;ratioP1;P1;durP2;ratioP2;P2;SDS_P1;SDS_P2;PMS_P1;PMS_P2;Temp;Humidity;BMP_temperature;BMP_pressure;BME280_temperature;BME280_humidity;BME280_pressure;Samples;Min_cycle;Max_cycle;Signal;HPM_P1;HPM_P2
2024/01/25 00:01:54;;;;;;;21.20;5.20;;;7.40;99.90;;;;;;5072858;28;20098;-50
2024/01/25 00:04:20;;;;;;;29.60;5.55;;;7.20;99.90;;;;;;5071986;28;20036;-48
2024/01/25 00:06:45;;;;;;;27.95;4.50;;;6.80;99.90;;;;;;5055051;28;20503;-50
2024/01/25 00:09:11;;;;;;;27.33;4.82;;;6.80;99.90;;;;;;5073277;28;20048;-47
2024/01/25 00:11:37;;;;;;;25.60;4.75;;;7.30;99.90;;;;;;5072799;28;20398;-50
2024/01/25 00:14:03;;;;;;;35.72;5.10;;;6.60;99.90;;;;;;5072786;28;20452;-47
2024/01/25 00:16:28;;;;;;;30.88;4.78;;;6.90;99.90;;;;;;5071630;28;20041;-51
2024/01/25 00:18:54;;;;;;;29.02;4.55;;;7.20;99.90;;;;;;5072630;28;20040;-48
2024/01/25 00:21:20;;;;;;;20.80;4.30;;;6.50;99.90;;;;;;5073010;28;20546;-48
2024/01/25 00:23:45;;;;;;;27.23;3.92;;;7.20;99.90;;;;;;5072716;28;20051;-51
2024/01/25 00:26:12;;;;;;;23.52;3.92;;;6.40;99.90;;;;;;5072633;28;20051;-51
2024/01/25 00:28:38;;;;;;;26.70;5.50;;;6.50;99.90;;;;;;5072774;28;20389;-47
2024/01/25 00:31:04;;;;;;;31.88;4.85;;;6.80;99.90;;;;;;5072787;28;20048;-50
2024/01/25 00:33:29;;;;;;;31.83;4.78;;;6.20;99.90;;;;;;5072533;28;20365;-49
2024/01/25 00:35:55;;;;;;;29.77;4.50;;;7.00;99.90;;;;;;5072587;28;20048;-50
2024/01/25 00:38:21;;;;;;;28.98;5.15;;;6.60;99.90;;;;;;5072441;28;20036;-47
2024/01/25 00:40:47;;;;;;;29.15;4.93;;;6.40;99.90;;;;;;5072344;28;20471;-47
2024/01/25 00:43:13;;;;;;;40.30;5.32;;;6.20;99.90;;;;;;5072538;28;20044;-47
2024/01/25 00:45:39;;;;;;;29.55;4.65;;;6.80;99.90;;;;;;5072355;28;20044;-50
2024/01/25 00:48:06;;;;;;;29.05;4.22;;;6.90;99.90;;;;;;5072343;28;20419;-46
2024/01/25 00:50:31;;;;;;;23.80;4.63;;;6.80;99.90;;;;;;5072370;28;20036;-49
2024/01/25 00:52:57;;;;;;;28.05;3.40;;;6.50;99.90;;;;;;5072205;28;20558;-47
2024/01/25 00:55:23;;;;;;;29.05;4.30;;;6.30;99.90;;;;;;5071742;28;20036;-46
2024/01/25 00:57:51;;;;;;;31.25;5.63;;;6.50;99.90;;;;;;5071818;28;20036;-49
2024/01/25 01:00:17;;;;;;;29.98;5.18;;;6.50;99.90;;;;;;5071865;28;20078;-47
2024/01/25 01:02:44;;;;;;;28.60;5.43;;;6.30;99.90;;;;;;5072102;28;20381;-46
2024/01/25 01:05:10;;;;;;;28.55;4.93;;;6.00;99.90;;;;;;5070206;28;20477;-46
2024/01/25 01:07:36;;;;;;;20.08;3.40;;;6.10;99.90;;;;;;5071456;28;20062;-50
2024/01/25 01:10:03;;;;;;;29.42;4.18;;;6.00;99.90;;;;;;5069697;28;20112;-49
2024/01/25 01:12:28;;;;;;;31.13;5.80;;;6.90;99.90;;;;;;5071543;28;20081;-47
2024/01/25 01:14:54;;;;;;;22.33;4.53;;;6.30;99.90;;;;;;5071740;28;20035;-46
2024/01/25 01:17:20;;;;;;;25.52;4.75;;;5.90;99.90;;;;;;5071740;28;20068;-51
2024/01/25 01:19:45;;;;;;;25.75;4.60;;;6.10;99.90;;;;;;5071958;28;20040;-50
2024/01/25 01:22:11;;;;;;;31.00;4.97;;;6.70;99.90;;;;;;5072003;28;20404;-47
2024/01/25 01:24:37;;;;;;;28.13;5.97;;;6.80;99.90;;;;;;5071921;28;20491;-50
2024/01/25 01:27:03;;;;;;;31.35;4.13;;;6.00;99.90;;;;;;5071828;28;20052;-47
2024/01/25 01:29:28;;;;;;;28.88;4.97;;;6.70;99.90;;;;;;5070438;28;20044;-51
2024/01/25 01:31:54;;;;;;;33.75;4.07;;;6.70;99.90;;;;;;5071926;28;20125;-48
2024/01/25 01:34:19;;;;;;;27.15;4.65;;;6.80;99.90;;;;;;5072091;28;20396;-48
2024/01/25 01:36:46;;;;;;;24.70;4.10;;;5.90;99.90;;;;;;5071694;28;20638;-46
2024/01/25 01:39:11;;;;;;;28.63;4.28;;;6.00;99.90;;;;;;5070185;28;20051;-48
2024/01/25 01:41:37;;;;;;;28.27;5.88;;;6.90;99.90;;;;;;5071676;28;20037;-50
2024/01/25 01:44:03;;;;;;;28.85;4.20;;;6.40;99.90;;;;;;5071469;28;20083;-46
2024/01/25 01:46:39;;;;;;;24.60;3.80;;;6.00;99.90;;;;;;5070404;28;20044;-47
2024/01/25 01:49:08;;;;;;;26.17;4.55;;;6.70;99.90;;;;;;5071553;28;20193;-47
2024/01/25 01:51:35;;;;;;;24.10;4.93;;;6.30;99.90;;;;;;5071425;28;20048;-51
2024/01/25 01:54:04;;;;;;;27.35;4.43;;;5.90;99.90;;;;;;5071553;28;20485;-48
2024/01/25 01:56:31;;;;;;;27.52;4.15;;;5.80;99.90;;;;;;5071749;28;20193;-47
2024/01/25 01:59:01;;;;;;;27.05;4.80;;;6.70;99.90;;;;;;5071628;28;20040;-48
2024/01/25 02:01:27;;;;;;;23.90;4.72;;;6.10;99.90;;;;;;5070149;28;20550;-47
2024/01/25 02:03:52;;;;;;;27.90;3.78;;;5.80;99.90;;;;;;5071716;28;20123;-49
2024/01/25 02:06:24;;;;;;;37.40;4.40;;;6.60;99.90;;;;;;5071018;28;20119;-46
2024/01/25 02:08:52;;;;;;;33.03;5.00;;;6.00;99.90;;;;;;5071196;28;20427;-47
2024/01/25 02:11:19;;;;;;;28.08;5.22;;;6.70;99.90;;;;;;5071021;28;20092;-46
2024/01/25 02:13:44;;;;;;;34.00;5.90;;;6.40;99.90;;;;;;5071337;28;20426;-46
2024/01/25 02:16:10;;;;;;;24.65;4.53;;;6.50;99.90;;;;;;5071403;28;20051;-48
2024/01/25 02:18:36;;;;;;;28.27;4.05;;;6.50;99.90;;;;;;5071499;28;20040;-46
2024/01/25 02:21:02;;;;;;;25.70;4.05;;;5.80;99.90;;;;;;5073893;28;20046;-47
2024/01/25 02:23:27;;;;;;;32.38;5.20;;;6.60;99.90;;;;;;5074816;28;20102;-48
2024/01/25 02:25:53;;;;;;;32.50;4.75;;;5.70;99.90;;;;;;5074423;28;20044;-46
2024/01/25 02:28:19;;;;;;;22.30;5.18;;;5.70;99.90;;;;;;5074652;28;20052;-46
2024/01/25 02:30:44;;;;;;;30.85;5.03;;;6.60;99.90;;;;;;5074507;28;20432;-48
2024/01/25 02:33:10;;;;;;;32.40;4.75;;;6.20;99.90;;;;;;5074357;28;20428;-49
2024/01/25 02:35:37;;;;;;;25.08;3.78;;;6.40;99.90;;;;;;5073117;28;20036;-48
2024/01/25 02:38:03;;;;;;;26.00;4.03;;;5.70;99.90;;;;;;5054735;28;20028;-50
2024/01/25 02:40:29;;;;;;;22.83;3.97;;;5.50;99.90;;;;;;5054846;28;20504;-51
2024/01/25 02:42:56;;;;;;;34.08;5.25;;;6.00;99.90;;;;;;5054710;28;20120;-46
2024/01/25 02:45:22;;;;;;;30.85;4.53;;;6.40;99.90;;;;;;5054601;28;20049;-51
2024/01/25 02:47:48;;;;;;;34.10;5.53;;;5.50;99.90;;;;;;5054388;28;20037;-48
2024/01/25 02:50:14;;;;;;;34.53;5.72;;;6.00;99.90;;;;;;5054557;28;20041;-49
2024/01/25 02:52:39;;;;;;;46.25;7.30;;;6.30;99.90;;;;;;5054225;28;20053;-48
2024/01/25 02:55:05;;;;;;;32.38;5.30;;;6.20;99.90;;;;;;5054324;28;20041;-48
2024/01/25 02:57:34;;;;;;;33.15;5.03;;;5.20;99.90;;;;;;5053974;28;20075;-50
2024/01/25 02:59:59;;;;;;;35.88;6.55;;;6.20;99.90;;;;;;5054169;28;20102;-50
2024/01/25 03:02:25;;;;;;;35.13;4.82;;;5.70;99.90;;;;;;5053848;28;20489;-46
2024/01/25 03:04:51;;;;;;;27.52;4.70;;;5.10;99.90;;;;;;5052593;28;20108;-49
2024/01/25 03:07:17;;;;;;;35.22;6.32;;;6.10;99.90;;;;;;5054150;28;20037;-49
2024/01/25 03:09:42;;;;;;;31.70;4.90;;;5.40;99.90;;;;;;5053936;28;20064;-49
2024/01/25 03:12:08;;;;;;;36.22;5.53;;;4.90;99.90;;;;;;5054043;28;20059;-49
2024/01/25 03:14:34;;;;;;;38.53;5.30;;;5.40;99.90;;;;;;5053673;28;20047;-46
2024/01/25 03:16:59;;;;;;;29.70;4.72;;;4.90;99.90;;;;;;5053653;28;20053;-51
2024/01/25 03:19:26;;;;;;;35.22;5.50;;;5.50;99.90;;;;;;5053672;28;20033;-47
2024/01/25 03:21:52;;;;;;;38.45;6.00;;;6.10;99.90;;;;;;5053743;28;20049;-50
2024/01/25 03:24:18;;;;;;;30.30;5.78;;;6.20;99.90;;;;;;5052416;28;20045;-50
2024/01/25 03:26:43;;;;;;;36.63;7.53;;;6.00;99.90;;;;;;5053574;28;20441;-47
2024/01/25 03:29:09;;;;;;;34.40;5.07;;;5.50;99.90;;;;;;5053547;28;20469;-47
2024/01/25 03:31:36;;;;;;;38.00;6.53;;;6.00;99.90;;;;;;5052768;28;20379;-49
2024/01/25 03:34:02;;;;;;;40.42;6.07;;;4.90;99.90;;;;;;5053286;28;20044;-49
2024/01/25 03:36:28;;;;;;;37.40;6.90;;;5.20;99.90;;;;;;5053328;28;20098;-47
2024/01/25 03:38:53;;;;;;;34.08;5.78;;;5.00;99.90;;;;;;5053640;28;20032;-46
2024/01/25 03:41:19;;;;;;;33.78;6.13;;;5.80;99.90;;;;;;5053598;28;20044;-46
2024/01/25 03:43:45;;;;;;;47.78;6.22;;;5.60;99.90;;;;;;5053693;28;20428;-47
2024/01/25 03:46:12;;;;;;;40.10;6.13;;;5.00;99.90;;;;;;5053356;28;20404;-47
2024/01/25 03:48:37;;;;;;;32.22;5.38;;;5.90;99.90;;;;;;5053705;28;20438;-47
2024/01/25 03:51:03;;;;;;;39.60;7.80;;;4.60;99.90;;;;;;5053289;28;20088;-46
2024/01/25 03:53:29;;;;;;;42.03;6.47;;;4.40;99.90;;;;;;5053192;28;20417;-49
2024/01/25 03:55:55;;;;;;;32.70;6.00;;;4.60;99.90;;;;;;5053129;28;20059;-48
2024/01/25 03:58:21;;;;;;;33.15;6.05;;;4.30;99.90;;;;;;5052804;28;20504;-51
2024/01/25 04:00:46;;;;;;;36.90;6.47;;;5.70;99.90;;;;;;5052593;28;20052;-49
2024/01/25 04:03:12;;;;;;;30.30;5.75;;;4.80;99.90;;;;;;5052916;28;20111;-46
2024/01/25 04:05:39;;;;;;;38.28;7.68;;;4.50;99.90;;;;;;5052744;28;20397;-49
2024/01/25 04:08:05;;;;;;;32.72;5.38;;;5.30;99.90;;;;;;5052801;28;20099;-46
2024/01/25 04:10:31;;;;;;;37.90;6.30;;;5.50;99.90;;;;;;5052491;28;20509;-50
2024/01/25 04:12:57;;;;;;;39.22;6.38;;;5.70;99.90;;;;;;5053137;28;20041;-46
2024/01/25 04:15:23;;;;;;;42.58;6.20;;;4.90;99.90;;;;;;5052800;28;20065;-50
2024/01/25 04:17:49;;;;;;;32.20;4.97;;;4.30;99.90;;;;;;5052714;28;20044;-46
2024/01/25 04:20:15;;;;;;;35.67;5.47;;;5.70;99.90;;;;;;5052758;28;20497;-46
2024/01/25 04:22:41;;;;;;;40.92;6.70;;;4.30;99.90;;;;;;5052688;28;20049;-47
2024/01/25 04:25:07;;;;;;;40.65;6.15;;;5.80;99.90;;;;;;5052576;28;20097;-47
2024/01/25 04:27:33;;;;;;;43.00;7.00;;;5.70;99.90;;;;;;5052647;28;20124;-46
2024/01/25 04:29:58;;;;;;;33.15;5.38;;;5.70;99.90;;;;;;5051501;28;20124;-46
2024/01/25 04:32:24;;;;;;;39.05;5.53;;;4.40;99.90;;;;;;5052833;28;20064;-47
2024/01/25 04:34:50;;;;;;;36.15;5.47;;;5.00;99.90;;;;;;5052784;28;20029;-47
2024/01/25 04:37:16;;;;;;;39.58;6.53;;;4.10;99.90;;;;;;5052580;28;20036;-46
2024/01/25 04:39:41;;;;;;;30.92;4.93;;;4.40;99.90;;;;;;5052535;28;20044;-48
2024/01/25 04:42:08;;;;;;;41.03;7.85;;;4.10;99.90;;;;;;5051410;28;20485;-47
2024/01/25 04:44:33;;;;;;;36.40;7.05;;;5.50;99.90;;;;;;5050200;28;20139;-46
2024/01/25 04:47:00;;;;;;;40.40;5.30;;;5.40;99.90;;;;;;5052663;28;20115;-46
2024/01/25 04:49:25;;;;;;;33.63;7.03;;;5.20;99.90;;;;;;5052401;28;20122;-46
2024/01/25 04:51:51;;;;;;;28.10;5.68;;;4.60;99.90;;;;;;5052053;28;20106;-51
2024/01/25 04:54:17;;;;;;;34.42;6.20;;;4.80;99.90;;;;;;5052346;28;20562;-51
2024/01/25 04:56:43;;;;;;;34.20;5.78;;;3.70;99.90;;;;;;5052129;28;20396;-49
2024/01/25 04:59:09;;;;;;;31.00;5.00;;;3.90;99.90;;;;;;5051730;28;20370;-49
2024/01/25 05:01:35;;;;;;;33.40;5.47;;;4.90;99.90;;;;;;5052040;28;20055;-51
2024/01/25 05:04:01;;;;;;;36.80;5.78;;;5.20;99.90;;;;;;5051814;28;20041;-47
2024/01/25 05:06:27;;;;;;;36.58;5.72;;;3.80;99.90;;;;;;5050503;28;20087;-51
2024/01/25 05:08:53;;;;;;;38.78;6.47;;;5.20;99.90;;;;;;5051912;28;20048;-48
2024/01/25 05:11:18;;;;;;;45.10;5.85;;;3.70;99.90;;;;;;5051978;28;20060;-49
2024/01/25 05:13:44;;;;;;;37.42;6.32;;;5.10;99.90;;;;;;5050272;28;20040;-47
2024/01/25 05:16:10;;;;;;;36.35;5.72;;;5.10;99.90;;;;;;5051599;28;20070;-48
2024/01/25 05:18:36;;;;;;;38.80;6.00;;;3.60;99.90;;;;;;5051278;28;20052;-49
2024/01/25 05:21:02;;;;;;;40.28;7.20;;;4.40;99.90;;;;;;5052029;28;20041;-49
2024/01/25 05:23:28;;;;;;;46.40;6.30;;;5.10;99.90;;;;;;5051767;28;20040;-51
2024/01/25 05:25:53;;;;;;;45.15;7.65;;;4.10;99.90;;;;;;5051711;28;20049;-50
2024/01/25 05:28:19;;;;;;;34.30;5.97;;;5.00;99.90;;;;;;5051721;28;20094;-50
2024/01/25 05:30:45;;;;;;;30.45;4.78;;;4.80;99.90;;;;;;5051921;28;20398;-51
2024/01/25 05:33:10;;;;;;;30.63;6.00;;;5.00;99.90;;;;;;5051965;28;20063;-49
2024/01/25 05:35:36;;;;;;;38.08;5.80;;;4.60;99.90;;;;;;5051853;28;20652;-46
2024/01/25 05:38:02;;;;;;;38.03;9.10;;;4.90;99.90;;;;;;5051833;28;20048;-47
2024/01/25 05:40:27;;;;;;;42.67;5.93;;;5.00;99.90;;;;;;5051696;28;20048;-51
2024/01/25 05:42:53;;;;;;;39.05;5.72;;;5.00;99.90;;;;;;5051712;28;20047;-47
2024/01/25 05:45:21;;;;;;;44.63;7.32;;;5.00;99.90;;;;;;5050552;28;20405;-48
2024/01/25 05:47:47;;;;;;;35.10;5.90;;;4.60;99.90;;;;;;5051427;28;20107;-47
2024/01/25 05:50:13;;;;;;;38.00;6.85;;;3.50;99.90;;;;;;5058690;28;20126;-48
2024/01/25 05:52:38;;;;;;;39.22;5.72;;;4.80;99.90;;;;;;5060307;28;20084;-46
2024/01/25 05:55:05;;;;;;;44.53;5.47;;;3.30;99.90;;;;;;5063576;28;20613;-46
2024/01/25 05:57:32;;;;;;;33.42;4.93;;;4.90;99.90;;;;;;5064327;28;20076;-47
2024/01/25 05:59:57;;;;;;;37.25;5.70;;;3.40;99.90;;;;;;5065429;28;20519;-46
2024/01/25 06:02:23;;;;;;;35.45;6.70;;;4.70;99.90;;;;;;5064641;28;20037;-47
2024/01/25 06:04:49;;;;;;;34.65;5.55;;;4.80;99.90;;;;;;5074452;28;20120;-46
2024/01/25 06:07:14;;;;;;;38.70;5.22;;;4.70;99.90;;;;;;5075510;28;20040;-46
2024/01/25 06:09:40;;;;;;;39.05;4.93;;;3.80;99.90;;;;;;5074193;28;20135;-46
2024/01/25 06:12:06;;;;;;;32.95;6.13;;;3.80;99.90;;;;;;5067585;28;20032;-46
2024/01/25 06:14:32;;;;;;;35.28;6.05;;;3.30;99.90;;;;;;5065326;28;20043;-46
2024/01/25 06:16:58;;;;;;;38.17;6.25;;;3.20;99.90;;;;;;5065135;28;20036;-46
2024/01/25 06:19:23;;;;;;;34.70;5.28;;;4.20;99.90;;;;;;5063718;28;20063;-45
2024/01/25 06:21:50;;;;;;;40.90;7.00;;;3.20;99.90;;;;;;5065831;28;20040;-47
2024/01/25 06:24:16;;;;;;;40.80;6.10;;;3.30;99.90;;;;;;5060491;28;20040;-46
2024/01/25 06:26:41;;;;;;;28.52;6.05;;;3.20;99.90;;;;;;5054339;28;20110;-49
2024/01/25 06:29:07;;;;;;;36.42;5.72;;;4.60;99.90;;;;;;5053674;28;20037;-47
2024/01/25 06:31:33;;;;;;;37.05;6.70;;;3.50;99.90;;;;;;5053802;28;20084;-48
2024/01/25 06:33:58;;;;;;;35.83;5.40;;;3.20;99.90;;;;;;5053070;28;20044;-48
2024/01/25 06:36:24;;;;;;;36.35;6.65;;;3.30;99.90;;;;;;5054141;28;20087;-47
2024/01/25 06:38:50;;;;;;;35.80;5.63;;;3.40;99.90;;;;;;5053861;28;20116;-48
2024/01/25 06:41:16;;;;;;;37.70;6.88;;;3.60;99.90;;;;;;5053724;28;20049;-46
2024/01/25 06:43:42;;;;;;;28.33;4.88;;;3.60;99.90;;;;;;5052787;28;20105;-50
2024/01/25 06:46:08;;;;;;;33.55;5.32;;;4.80;99.90;;;;;;5053400;28;20037;-46
2024/01/25 06:48:34;;;;;;;41.63;6.32;;;4.70;99.90;;;;;;5051712;28;20057;-51
2024/01/25 06:51:02;;;;;;;43.72;6.68;;;3.40;99.90;;;;;;5053374;28;20049;-51
2024/01/25 06:53:28;;;;;;;37.20;5.53;;;3.70;99.90;;;;;;5056312;28;20683;-47
2024/01/25 06:55:54;;;;;;;33.13;4.93;;;4.20;99.90;;;;;;5061669;28;20158;-49
2024/01/25 06:58:19;;;;;;;35.20;5.18;;;3.60;99.90;;;;;;5061028;28;20036;-48
2024/01/25 07:00:46;;;;;;;29.70;4.90;;;4.30;99.90;;;;;;5063038;28;20024;-51
2024/01/25 07:03:12;;;;;;;30.30;5.57;;;3.30;99.90;;;;;;5073651;28;20052;-49
2024/01/25 07:05:38;;;;;;;33.75;5.05;;;4.70;99.90;;;;;;5073307;28;20442;-50
2024/01/25 07:08:04;;;;;;;40.78;4.45;;;3.90;99.90;;;;;;5071413;28;20041;-48
2024/01/25 07:10:30;;;;;;;30.98;4.35;;;3.80;99.90;;;;;;5071800;28;20048;-47
2024/01/25 07:12:56;;;;;;;37.50;5.88;;;3.70;99.90;;;;;;5073219;28;20047;-47
2024/01/25 07:15:22;;;;;;;36.33;6.38;;;4.30;99.90;;;;;;5073395;28;20044;-46
2024/01/25 07:17:47;;;;;;;32.85;5.07;;;4.40;99.90;;;;;;5073137;28;20032;-47
2024/01/25 07:20:13;;;;;;;27.40;4.63;;;3.70;99.90;;;;;;5073106;28;20055;-46
2024/01/25 07:22:39;;;;;;;30.73;3.95;;;4.60;99.90;;;;;;5072908;28;20157;-48
2024/01/25 07:25:05;;;;;;;26.95;4.35;;;4.00;99.90;;;;;;5073000;28;20778;-47
2024/01/25 07:27:31;;;;;;;39.03;5.22;;;4.00;99.90;;;;;;5073038;28;20086;-49
2024/01/25 07:29:57;;;;;;;27.17;3.80;;;4.60;99.90;;;;;;5072923;28;20049;-49
2024/01/25 07:32:24;;;;;;;32.67;6.00;;;4.50;99.90;;;;;;5071313;28;20055;-48
2024/01/25 07:34:50;;;;;;;24.20;3.85;;;3.20;99.90;;;;;;5072767;28;20115;-48
2024/01/25 07:37:18;;;;;;;29.50;4.68;;;3.70;99.90;;;;;;5072715;28;20070;-50
2024/01/25 07:39:44;;;;;;;27.70;3.38;;;3.00;99.90;;;;;;5072850;28;20033;-51
2024/01/25 07:42:11;;;;;;;32.40;5.75;;;3.20;99.90;;;;;;5072805;28;20071;-48
2024/01/25 07:44:36;;;;;;;37.47;4.90;;;4.70;99.90;;;;;;5072705;28;20048;-46
2024/01/25 07:47:02;;;;;;;21.67;3.90;;;4.60;99.90;;;;;;5070812;28;20109;-49
2024/01/25 07:49:29;;;;;;;30.20;5.13;;;4.70;99.90;;;;;;5072180;28;20035;-48
2024/01/25 07:51:57;;;;;;;27.83;5.13;;;4.70;99.90;;;;;;5071801;28;20064;-47
2024/01/25 07:54:24;;;;;;;27.92;4.25;;;3.30;99.90;;;;;;5070798;28;20044;-49
2024/01/25 07:56:50;;;;;;;23.52;4.40;;;3.40;99.90;;;;;;5072078;28;20365;-47
2024/01/25 07:59:16;;;;;;;26.15;4.40;;;3.40;99.90;;;;;;5072464;28;20048;-51
2024/01/25 08:01:42;;;;;;;24.40;4.65;;;4.70;99.90;;;;;;5072321;28;20048;-47
2024/01/25 08:04:07;;;;;;;27.30;4.15;;;4.70;99.90;;;;;;5071931;28;20536;-49
2024/01/25 08:06:33;;;;;;;31.50;5.00;;;3.20;99.90;;;;;;5071988;28;20036;-47
2024/01/25 08:08:59;;;;;;;32.80;3.63;;;4.70;99.90;;;;;;5071845;28;20048;-47
2024/01/25 08:11:25;;;;;;;24.77;3.85;;;4.70;99.90;;;;;;5071692;28;20043;-47
2024/01/25 08:13:50;;;;;;;20.40;3.58;;;3.70;99.90;;;;;;5071707;28;20469;-50
2024/01/25 08:16:20;;;;;;;32.10;5.22;;;4.00;99.90;;;;;;5071845;28;20037;-48
2024/01/25 08:18:49;;;;;;;19.02;4.45;;;3.20;99.90;;;;;;5071659;28;20377;-49
2024/01/25 08:21:15;;;;;;;28.27;4.57;;;3.60;99.90;;;;;;5071772;28;20044;-50
2024/01/25 08:23:41;;;;;;;22.45;4.28;;;4.00;99.90;;;;;;5072066;28;20392;-49
2024/01/25 08:26:12;;;;;;;23.67;4.60;;;4.80;99.90;;;;;;5071840;28;20049;-50
2024/01/25 08:28:40;;;;;;;23.63;4.57;;;4.50;99.90;;;;;;5063466;28;20052;-49
2024/01/25 08:31:06;;;;;;;22.48;4.55;;;3.50;99.90;;;;;;5059345;28;20056;-51
2024/01/25 08:33:32;;;;;;;32.90;4.30;;;4.90;99.90;;;;;;5051751;28;20056;-49
2024/01/25 08:35:57;;;;;;;24.08;3.83;;;3.50;99.90;;;;;;5051542;28;20111;-47
2024/01/25 08:38:23;;;;;;;27.77;4.25;;;3.40;99.90;;;;;;5051591;28;20041;-46
2024/01/25 08:40:49;;;;;;;29.17;5.45;;;4.90;99.90;;;;;;5051812;28;20045;-46
2024/01/25 08:43:14;;;;;;;30.63;5.30;;;3.50;99.90;;;;;;5051561;28;20359;-47
2024/01/25 08:45:40;;;;;;;22.35;3.97;;;3.50;99.90;;;;;;5051770;28;20068;-48
2024/01/25 08:48:08;;;;;;;27.63;5.75;;;3.70;99.90;;;;;;5051669;28;20660;-48
2024/01/25 08:50:36;;;;;;;31.10;4.32;;;3.80;99.90;;;;;;5051131;28;20136;-47
2024/01/25 08:53:02;;;;;;;21.20;4.25;;;3.80;99.90;;;;;;5049956;28;20059;-47
2024/01/25 08:55:28;;;;;;;32.88;3.95;;;4.60;99.90;;;;;;5050159;28;20124;-49
2024/01/25 08:57:54;;;;;;;33.40;5.93;;;3.60;99.90;;;;;;5050041;28;20087;-47
2024/01/25 09:00:19;;;;;;;28.98;5.10;;;3.60;99.90;;;;;;5051351;28;20053;-47
2024/01/25 09:02:45;;;;;;;33.10;5.75;;;4.00;99.90;;;;;;5051269;28;20041;-47
2024/01/25 09:05:11;;;;;;;33.60;4.93;;;4.80;99.90;;;;;;5051076;28;20050;-50
2024/01/25 09:07:38;;;;;;;25.15;6.10;;;3.80;99.90;;;;;;5051316;28;20566;-45
2024/01/25 09:10:04;;;;;;;27.70;5.20;;;3.80;99.90;;;;;;5051709;28;20048;-49
2024/01/25 09:12:30;;;;;;;33.10;4.78;;;4.10;99.90;;;;;;5052296;28;20032;-46
2024/01/25 09:14:56;;;;;;;26.85;4.47;;;3.90;99.90;;;;;;5050824;28;20429;-46
2024/01/25 09:17:22;;;;;;;23.40;4.45;;;4.40;99.90;;;;;;5051881;28;20044;-47
2024/01/25 09:19:49;;;;;;;33.08;5.50;;;4.80;99.90;;;;;;5052142;28;20084;-45
2024/01/25 09:22:17;;;;;;;29.00;4.95;;;5.00;99.90;;;;;;5050809;28;20076;-46
2024/01/25 09:24:43;;;;;;;29.67;5.45;;;4.30;99.90;;;;;;5051968;28;20041;-45
2024/01/25 09:27:09;;;;;;;27.83;5.95;;;4.00;99.90;;;;;;5052117;28;20118;-45
2024/01/25 09:29:34;;;;;;;31.58;6.72;;;4.50;99.90;;;;;;5053752;28;20434;-45
2024/01/25 09:32:00;;;;;;;29.75;4.40;;;4.50;99.90;;;;;;5066383;28;20044;-47
2024/01/25 09:34:26;;;;;;;32.97;5.45;;;4.30;99.90;;;;;;5065419;28;20127;-46
2024/01/25 09:36:51;;;;;;;20.45;4.07;;;5.80;99.90;;;;;;5065252;28;20393;-45
2024/01/25 09:39:17;;;;;;;31.60;6.38;;;4.90;99.90;;;;;;5066814;28;20047;-46
2024/01/25 09:41:43;;;;;;;29.70;5.07;;;5.90;99.90;;;;;;5056974;28;20037;-49
2024/01/25 09:44:10;;;;;;;27.80;5.60;;;4.80;99.90;;;;;;5055823;28;20060;-51
2024/01/25 09:46:37;;;;;;;24.30;4.68;;;6.00;99.90;;;;;;5055249;28;20604;-47
2024/01/25 09:49:04;;;;;;;24.13;5.15;;;6.20;99.90;;;;;;5054645;28;20044;-46
2024/01/25 09:51:37;;;;;;;31.23;5.03;;;6.00;99.90;;;;;;5055464;28;20061;-50
2024/01/25 09:54:05;;;;;;;30.85;5.55;;;4.60;99.90;;;;;;5055500;28;20493;-47
2024/01/25 09:56:32;;;;;;;22.42;4.53;;;6.30;99.90;;;;;;5054376;28;20071;-47
2024/01/25 09:58:58;;;;;;;31.65;4.57;;;6.30;99.90;;;;;;5055570;28;20049;-50
2024/01/25 10:01:24;;;;;;;35.72;5.38;;;6.40;99.90;;;;;;5055646;28;20585;-46
2024/01/25 10:03:50;;;;;;;27.20;6.10;;;6.40;99.90;;;;;;5055621;28;20063;-46
2024/01/25 10:06:17;;;;;;;28.95;5.57;;;6.10;99.90;;;;;;5055537;28;20075;-47
2024/01/25 10:08:43;;;;;;;30.45;5.22;;;4.90;99.90;;;;;;5055347;28;20120;-46
2024/01/25 10:11:11;;;;;;;25.20;5.25;;;6.70;99.90;;;;;;5055152;28;20048;-47
2024/01/25 10:13:50;;;;;;;28.60;5.80;;;5.90;99.90;;;;;;5055279;28;20041;-47
2024/01/25 10:16:17;;;;;;;33.25;7.97;;;6.70;99.90;;;;;;5054026;28;20040;-50
2024/01/25 10:18:46;;;;;;;28.50;5.65;;;6.90;99.90;;;;;;5055274;28;20076;-49
2024/01/25 10:21:13;;;;;;;26.33;4.18;;;5.30;99.90;;;;;;5055074;28;20041;-50
2024/01/25 10:23:45;;;;;;;28.02;5.13;;;6.30;99.90;;;;;;5054936;28;20075;-48
2024/01/25 10:26:11;;;;;;;26.70;7.03;;;6.70;99.90;;;;;;5054822;28;20071;-46
2024/01/25 10:28:37;;;;;;;27.85;6.13;;;6.70;99.90;;;;;;5054924;28;20041;-47
2024/01/25 10:31:07;;;;;;;30.35;4.47;;;5.90;99.90;;;;;;5054711;28;20080;-46
2024/01/25 10:33:34;;;;;;;30.00;6.13;;;5.90;99.90;;;;;;5056590;28;20044;-47
2024/01/25 10:36:03;;;;;;;33.05;5.18;;;5.00;99.90;;;;;;5061790;28;20037;-45
2024/01/25 10:38:37;;;;;;;31.70;4.53;;;6.70;99.90;;;;;;5069150;28;20036;-46
2024/01/25 10:41:04;;;;;;;23.67;6.55;;;5.10;99.90;;;;;;5066619;28;20040;-46
2024/01/25 10:43:31;;;;;;;30.02;5.25;;;5.60;99.90;;;;;;5063934;28;20115;-47
2024/01/25 10:45:58;;;;;;;25.95;5.28;;;6.80;99.90;;;;;;5063593;28;20055;-47
2024/01/25 10:48:27;;;;;;;27.45;5.18;;;5.30;99.90;;;;;;5065441;28;20040;-47
2024/01/25 10:50:54;;;;;;;38.38;5.78;;;6.40;99.90;;;;;;5063925;28;20094;-47
2024/01/25 10:53:21;;;;;;;34.22;6.78;;;5.40;99.90;;;;;;5062979;28;20504;-45
2024/01/25 10:55:47;;;;;;;36.05;7.45;;;7.20;99.90;;;;;;5062951;28;20044;-51
2024/01/25 10:58:14;;;;;;;24.77;5.50;;;6.30;99.90;;;;;;5062298;28;20037;-48
2024/01/25 11:00:39;;;;;;;36.10;5.40;;;5.90;99.90;;;;;;5062100;28;20047;-51
2024/01/25 11:03:09;;;;;;;37.47;7.55;;;6.10;99.90;;;;;;5069485;28;20044;-49
2024/01/25 11:05:35;;;;;;;35.80;5.53;;;7.50;99.90;;;;;;5073796;28;20044;-47
2024/01/25 11:08:01;;;;;;;32.15;6.75;;;6.10;99.90;;;;;;5074040;28;20040;-49
2024/01/25 11:10:27;;;;;;;35.17;6.70;;;7.50;99.90;;;;;;5073983;28;20383;-50
2024/01/25 11:12:59;;;;;;;28.33;6.10;;;7.50;99.90;;;;;;5074361;28;20052;-47
2024/01/25 11:15:33;;;;;;;38.78;6.47;;;6.00;99.90;;;;;;5074012;28;20571;-46
2024/01/25 11:18:06;;;;;;;27.55;4.57;;;6.10;99.90;;;;;;5072757;28;20047;-48
2024/01/25 11:20:33;;;;;;;30.35;7.32;;;6.10;99.90;;;;;;5073948;28;20044;-49
2024/01/25 11:23:04;;;;;;;27.83;5.43;;;7.60;99.90;;;;;;5074017;28;20063;-49
2024/01/25 11:25:37;;;;;;;24.88;4.95;;;7.10;99.90;;;;;;5072585;28;20048;-50
2024/01/25 11:28:04;;;;;;;32.55;5.97;;;6.60;99.90;;;;;;5073826;28;20048;-48
2024/01/25 11:30:34;;;;;;;36.90;6.85;;;6.70;99.90;;;;;;5073952;28;20033;-48
2024/01/25 11:33:04;;;;;;;26.23;6.53;;;6.40;99.90;;;;;;5073514;28;20040;-48
2024/01/25 11:35:29;;;;;;;31.00;5.30;;;7.80;99.90;;;;;;5073890;28;20064;-46
2024/01/25 11:37:55;;;;;;;27.80;5.68;;;6.40;99.90;;;;;;5073717;28;20079;-61
2024/01/25 11:40:21;;;;;;;26.55;4.80;;;7.50;99.90;;;;;;5072512;28;20033;-61
2024/01/25 11:42:50;;;;;;;33.25;6.15;;;7.70;99.90;;;;;;5073539;28;20048;-61
2024/01/25 11:45:17;;;;;;;27.85;4.60;;;6.50;99.90;;;;;;5073419;28;20476;-61
2024/01/25 11:47:43;;;;;;;35.22;5.30;;;6.30;99.90;;;;;;5073520;28;20044;-60
2024/01/25 11:50:11;;;;;;;23.83;5.07;;;6.50;99.90;;;;;;5073536;28;20123;-60
2024/01/25 11:52:37;;;;;;;29.88;5.72;;;7.70;99.90;;;;;;5072412;28;20063;-60
2024/01/25 11:55:07;;;;;;;26.98;5.45;;;6.80;99.90;;;;;;5073236;28;20036;-61
2024/01/25 11:57:41;;;;;;;36.72;5.97;;;7.80;99.90;;;;;;5073272;28;20040;-61
2024/01/25 12:00:13;;;;;;;35.72;6.20;;;7.70;99.90;;;;;;5071828;28;20072;-61
2024/01/25 12:02:39;;;;;;;24.27;5.28;;;8.00;99.90;;;;;;5073284;28;20047;-61
2024/01/25 12:05:06;;;;;;;24.75;4.97;;;6.60;99.90;;;;;;5072824;28;20526;-61
2024/01/25 12:07:32;;;;;;;39.13;7.63;;;7.10;99.90;;;;;;5073050;28;20043;-61
2024/01/25 12:10:06;;;;;;;30.73;5.53;;;7.40;99.90;;;;;;5072870;28;20447;-61
2024/01/25 12:12:32;;;;;;;19.67;4.93;;;6.80;99.90;;;;;;5073103;28;20071;-62
2024/01/25 12:15:04;;;;;;;31.90;4.72;;;7.70;99.90;;;;;;5071868;28;20900;-61
2024/01/25 12:17:30;;;;;;;24.57;4.90;;;6.90;99.90;;;;;;5073187;28;20029;-61
2024/01/25 12:19:57;;;;;;;23.40;5.07;;;7.70;99.90;;;;;;5072460;28;20543;-61
2024/01/25 12:22:23;;;;;;;27.02;5.50;;;6.90;99.90;;;;;;5072822;28;20059;-61
2024/01/25 12:24:53;;;;;;;20.50;4.60;;;7.80;99.90;;;;;;5072663;28;20049;-61
2024/01/25 12:27:21;;;;;;;32.35;5.00;;;7.00;99.90;;;;;;5072427;28;20047;-61
2024/01/25 12:29:46;;;;;;;21.48;4.13;;;7.10;99.90;;;;;;5072682;28;20032;-61
2024/01/25 12:32:13;;;;;;;22.90;5.43;;;7.40;99.90;;;;;;5072565;28;20041;-61
2024/01/25 12:34:41;;;;;;;26.55;4.72;;;8.00;99.90;;;;;;5071184;28;20129;-61
2024/01/25 12:37:07;;;;;;;33.47;5.60;;;7.20;99.90;;;;;;5072700;28;20037;-61
2024/01/25 12:39:33;;;;;;;31.92;5.80;;;8.20;99.90;;;;;;5072564;28;20032;-61
2024/01/25 12:41:58;;;;;;;26.25;5.03;;;8.10;99.90;;;;;;5072672;28;20036;-61
2024/01/25 12:44:25;;;;;;;25.60;4.97;;;7.40;99.90;;;;;;5072566;28;20044;-59